createdAt,value
2022-12-11T00:00:59.011Z,3.18
2022-12-11T00:04:02.958Z,3.20
2022-12-11T00:07:05.572Z,3.22
2022-12-11T00:10:09.433Z,3.23
2022-12-11T00:13:12.020Z,3.25
2022-12-11T00:16:14.701Z,3.27
2022-12-11T00:19:18.673Z,3.25
2022-12-11T00:22:21.276Z,3.25
2022-12-11T00:25:23.837Z,3.25
2022-12-11T00:28:26.489Z,3.28
2022-12-11T00:31:29.108Z,3.31
2022-12-11T00:34:33.060Z,3.32
2022-12-11T00:37:35.732Z,3.35
2022-12-11T00:40:38.418Z,3.35
2022-12-11T00:43:41.030Z,3.36
2022-12-11T00:46:43.640Z,3.34
2022-12-11T00:49:49.937Z,3.34
2022-12-11T00:52:52.859Z,3.29
2022-12-11T00:55:55.482Z,3.25
2022-12-11T00:58:58.101Z,3.21
2022-12-11T01:02:00.722Z,3.18
2022-12-11T01:05:05.061Z,3.16
2022-12-11T01:08:07.788Z,3.14
2022-12-11T01:11:11.814Z,3.16
2022-12-11T01:14:14.433Z,3.17
2022-12-11T01:17:16.991Z,3.15
2022-12-11T01:20:21.032Z,3.12
2022-12-11T01:23:23.629Z,3.08
2022-12-11T01:26:26.261Z,3.06
2022-12-11T01:29:28.833Z,3.00
2022-12-11T01:32:31.521Z,2.97
2022-12-11T01:35:35.556Z,2.97
2022-12-11T01:38:38.144Z,2.92
2022-12-11T01:41:40.774Z,2.88
2022-12-11T01:45:27.178Z,2.89
2022-12-11T01:48:31.424Z,2.89
2022-12-11T01:51:37.066Z,2.92
2022-12-11T01:54:39.778Z,2.93
2022-12-11T01:57:43.305Z,2.94
2022-12-11T02:00:45.914Z,2.95
2022-12-11T02:03:48.485Z,2.95
2022-12-11T02:06:52.838Z,2.99
2022-12-11T02:09:55.455Z,3.02
2022-12-11T02:13:00.027Z,3.05
2022-12-11T02:16:06.926Z,3.02
2022-12-11T02:19:15.989Z,3.05
2022-12-11T02:22:23.747Z,3.06
2022-12-11T02:25:28.819Z,3.08
2022-12-11T02:28:33.258Z,2.98
2022-12-11T02:31:37.534Z,3.00
2022-12-11T02:34:42.082Z,2.97
2022-12-11T02:37:45.573Z,2.93
2022-12-11T02:40:48.132Z,2.89
2022-12-11T02:43:52.339Z,2.86
2022-12-11T02:46:54.929Z,2.82
2022-12-11T02:49:57.542Z,2.83
2022-12-11T02:53:00.123Z,2.81
2022-12-11T02:56:05.450Z,2.81
2022-12-11T02:59:11.326Z,2.80
2022-12-11T03:02:14.377Z,2.81
2022-12-11T03:05:16.981Z,2.82
2022-12-11T03:08:19.574Z,2.88
2022-12-11T03:11:22.145Z,2.92
2022-12-11T03:14:26.145Z,2.94
2022-12-11T03:17:31.286Z,2.96
2022-12-11T03:20:37.940Z,2.99
2022-12-11T03:23:42.452Z,2.96
2022-12-11T03:26:46.085Z,2.98
2022-12-11T03:29:56.865Z,2.97
2022-12-11T03:33:00.689Z,2.96
2022-12-11T03:36:06.334Z,2.97
2022-12-11T03:39:10.276Z,2.97
2022-12-11T03:42:13.823Z,2.99
2022-12-11T03:45:17.858Z,2.99
2022-12-11T03:48:20.427Z,3.01
2022-12-11T03:51:24.071Z,2.98
2022-12-11T03:54:26.644Z,2.98
2022-12-11T03:57:31.108Z,2.99
2022-12-11T04:00:35.094Z,2.97
2022-12-11T04:03:37.786Z,2.98
2022-12-11T04:06:40.378Z,2.98
2022-12-11T04:09:42.912Z,2.98
2022-12-11T04:12:45.525Z,3.00
2022-12-11T04:15:49.604Z,3.00
2022-12-11T04:19:10.020Z,3.04
2022-12-11T04:22:29.628Z,3.04
2022-12-11T04:25:32.257Z,3.01
2022-12-11T04:28:34.874Z,2.98
2022-12-11T04:31:38.795Z,2.96
2022-12-11T04:34:41.685Z,2.94
2022-12-11T04:37:44.260Z,2.91
2022-12-11T04:40:46.835Z,2.90
2022-12-11T04:43:49.393Z,2.86
2022-12-11T04:46:53.389Z,2.86
2022-12-11T04:49:56.037Z,2.84
2022-12-11T04:52:58.622Z,2.83
2022-12-11T04:56:01.208Z,2.80
2022-12-11T04:59:03.765Z,2.78
2022-12-11T05:02:07.715Z,2.80
2022-12-11T05:05:11.273Z,2.81
2022-12-11T05:08:14.014Z,2.79
2022-12-11T05:11:17.450Z,2.78
2022-12-11T05:14:20.173Z,2.76
2022-12-11T05:17:24.093Z,2.76
2022-12-11T05:20:26.661Z,2.74
2022-12-11T05:23:29.595Z,2.75
2022-12-11T05:26:32.147Z,2.76
2022-12-11T05:29:34.773Z,2.77
2022-12-11T05:32:38.713Z,2.77
2022-12-11T05:35:47.129Z,2.78
2022-12-11T05:38:49.779Z,2.77
2022-12-11T05:41:52.391Z,2.75
2022-12-11T05:44:54.977Z,2.74
2022-12-11T05:47:58.987Z,2.73
2022-12-11T05:51:01.933Z,2.72
2022-12-11T05:54:05.162Z,2.69
2022-12-11T05:57:07.773Z,2.65
2022-12-11T06:00:12.488Z,2.60
2022-12-11T06:03:16.435Z,2.56
2022-12-11T06:06:19.034Z,2.58
2022-12-11T06:09:21.613Z,2.54
2022-12-11T06:12:24.341Z,2.47
2022-12-11T06:15:26.973Z,2.42
2022-12-11T06:18:31.001Z,2.43
2022-12-11T06:21:33.986Z,2.47
2022-12-11T06:24:36.653Z,2.48
2022-12-11T06:27:39.271Z,2.51
2022-12-11T06:30:41.853Z,2.52
2022-12-11T06:33:45.812Z,2.52
2022-12-11T06:36:48.409Z,2.53
2022-12-11T06:39:51.018Z,2.52
2022-12-11T06:42:54.504Z,2.49
2022-12-11T06:46:03.426Z,2.47
2022-12-11T06:49:07.885Z,2.47
2022-12-11T06:52:15.009Z,2.48
2022-12-11T06:55:20.716Z,2.48
2022-12-11T06:58:23.317Z,2.46
2022-12-11T07:01:26.683Z,2.47
2022-12-11T07:04:30.679Z,2.46
2022-12-11T07:07:33.290Z,2.46
2022-12-11T07:10:35.977Z,2.39
2022-12-11T07:13:38.557Z,2.37
2022-12-11T07:16:41.301Z,2.33
2022-12-11T07:19:45.538Z,2.25
2022-12-11T07:22:48.109Z,2.23
2022-12-11T07:25:50.696Z,2.17
2022-12-11T07:28:53.297Z,2.08
2022-12-11T07:31:55.951Z,2.04
2022-12-11T07:35:00.006Z,1.98
2022-12-11T07:38:02.605Z,1.95
2022-12-11T07:41:06.253Z,1.91
2022-12-11T07:44:08.842Z,1.92
2022-12-11T07:47:11.390Z,1.95
2022-12-11T07:50:15.381Z,1.96
2022-12-11T07:53:17.992Z,1.99
2022-12-11T07:56:20.575Z,2.03
2022-12-11T07:59:23.117Z,1.99
2022-12-11T08:02:25.693Z,2.11
2022-12-11T08:05:29.668Z,2.14
2022-12-11T08:08:32.272Z,2.19
2022-12-11T08:11:34.868Z,2.21
2022-12-11T08:14:37.665Z,2.21
2022-12-11T08:17:40.656Z,2.22
2022-12-11T08:20:44.574Z,2.20
2022-12-11T08:23:47.235Z,2.21
2022-12-11T08:26:49.807Z,2.22
2022-12-11T08:29:52.385Z,2.22
2022-12-11T08:32:54.945Z,2.24
2022-12-11T08:35:58.901Z,2.29
2022-12-11T08:39:01.908Z,2.32
2022-12-11T08:42:05.186Z,2.34
2022-12-11T08:45:09.588Z,2.37
2022-12-11T08:48:12.507Z,2.40
2022-12-11T08:51:17.194Z,2.46
2022-12-11T08:54:19.774Z,2.50
2022-12-11T08:57:22.398Z,2.55
2022-12-11T09:00:24.978Z,2.57
2022-12-11T09:03:27.541Z,2.58
2022-12-11T09:06:31.599Z,2.62
2022-12-11T09:09:34.203Z,2.62
2022-12-11T09:12:37.021Z,2.63
2022-12-11T09:15:41.459Z,2.64
2022-12-11T09:18:44.097Z,2.61
2022-12-11T09:21:48.061Z,2.58
2022-12-11T09:24:50.641Z,2.58
2022-12-11T09:27:53.228Z,2.57
2022-12-11T09:30:55.880Z,2.59
2022-12-11T09:33:59.254Z,2.59
2022-12-11T09:37:03.218Z,2.60
2022-12-11T09:40:07.887Z,2.63
2022-12-11T09:43:16.413Z,2.67
2022-12-11T09:46:21.607Z,2.67
2022-12-11T09:49:29.867Z,2.69
2022-12-11T09:52:36.152Z,2.75
2022-12-11T09:55:43.177Z,2.73
2022-12-11T09:58:54.890Z,2.74
2022-12-11T10:02:01.542Z,2.75
2022-12-11T10:05:09.066Z,2.74
2022-12-11T10:08:15.555Z,2.77
2022-12-11T10:11:37.253Z,2.79
2022-12-11T10:14:46.621Z,2.79
2022-12-11T10:17:49.193Z,2.81
2022-12-11T10:20:52.688Z,2.87
2022-12-11T10:23:58.948Z,2.91
2022-12-11T10:27:02.507Z,2.99
2022-12-11T10:30:21.437Z,2.99
2022-12-11T10:33:25.574Z,2.96
2022-12-11T10:36:29.593Z,2.93
2022-12-11T10:39:33.536Z,2.94
2022-12-11T10:42:38.938Z,2.97
2022-12-11T10:45:52.457Z,3.03
2022-12-11T10:48:55.828Z,3.04
2022-12-11T10:52:01.275Z,3.04
2022-12-11T10:55:06.952Z,3.06
2022-12-11T10:58:15.082Z,3.10
2022-12-11T11:01:19.950Z,3.12
2022-12-11T11:04:26.038Z,3.09
2022-12-11T11:07:29.339Z,3.09
2022-12-11T11:10:33.272Z,3.16
2022-12-11T11:13:36.287Z,3.22
2022-12-11T11:16:39.228Z,3.22
2022-12-11T11:19:41.842Z,3.32
2022-12-11T11:22:46.343Z,3.31
2022-12-11T11:25:54.267Z,3.35
2022-12-11T11:28:57.065Z,3.38
2022-12-11T11:32:00.654Z,3.38
2022-12-11T11:35:16.880Z,3.42
2022-12-11T11:38:20.736Z,3.47
2022-12-11T11:41:27.157Z,3.44
2022-12-11T11:44:32.518Z,3.40
2022-12-11T11:47:37.479Z,3.29
2022-12-11T11:50:40.018Z,3.30
2022-12-11T11:53:42.665Z,3.36
2022-12-11T11:56:46.598Z,3.41
2022-12-11T11:59:50.980Z,3.45
2022-12-11T12:02:55.249Z,3.50
2022-12-11T12:05:59.429Z,3.53
2022-12-11T12:09:09.098Z,3.50
2022-12-11T12:12:26.367Z,3.52
2022-12-11T12:15:36.444Z,3.50
2022-12-11T12:18:41.775Z,3.45
2022-12-11T12:21:44.878Z,3.46
2022-12-11T12:24:50.777Z,3.39
2022-12-11T12:27:59.421Z,3.34
2022-12-11T12:31:09.508Z,3.32
2022-12-11T12:34:16.546Z,3.30
2022-12-11T12:37:23.904Z,3.17
2022-12-11T12:40:30.870Z,3.13
2022-12-11T12:43:44.379Z,3.13
2022-12-11T12:46:52.309Z,3.15
2022-12-11T12:49:54.901Z,3.12
2022-12-11T12:52:57.465Z,3.10
2022-12-11T12:56:00.077Z,3.10
2022-12-11T12:59:04.038Z,3.07
2022-12-11T13:02:08.840Z,3.11
2022-12-11T13:05:21.337Z,3.02
2022-12-11T13:08:25.748Z,3.04
2022-12-11T13:11:32.669Z,2.99
2022-12-11T13:14:36.630Z,3.01
2022-12-11T13:17:39.644Z,2.99
2022-12-11T13:20:48.062Z,2.97
2022-12-11T13:23:50.609Z,3.00
2022-12-11T13:26:53.359Z,3.00
2022-12-11T13:30:07.424Z,3.03
2022-12-11T13:33:16.070Z,3.05
2022-12-11T13:36:35.800Z,3.06
2022-12-11T13:39:38.913Z,3.05
2022-12-11T13:42:44.958Z,2.96
2022-12-11T13:45:50.326Z,3.09
2022-12-11T13:48:55.164Z,3.09
2022-12-11T13:51:58.659Z,3.08
2022-12-11T13:55:01.283Z,3.11
2022-12-11T13:58:03.828Z,3.12
2022-12-11T14:01:11.025Z,3.13
2022-12-11T14:04:16.687Z,3.12
2022-12-11T14:07:23.817Z,3.14
2022-12-11T14:10:27.419Z,3.17
2022-12-11T14:13:32.677Z,3.21
2022-12-11T14:16:37.178Z,3.19
2022-12-11T14:19:39.830Z,3.17
2022-12-11T14:22:42.401Z,3.15
2022-12-11T14:25:53.311Z,3.15
2022-12-11T14:28:56.095Z,3.21
2022-12-11T14:32:01.762Z,3.26
2022-12-11T14:35:06.460Z,3.28
2022-12-11T14:38:12.371Z,3.27
2022-12-11T14:41:18.064Z,3.28
2022-12-11T14:44:21.044Z,3.30
2022-12-11T14:47:25.949Z,3.32
2022-12-11T14:50:31.076Z,3.31
2022-12-11T14:53:35.192Z,3.25
2022-12-11T14:56:37.781Z,3.25
2022-12-11T14:59:44.916Z,3.22
2022-12-11T15:02:57.877Z,3.13
2022-12-11T15:06:00.551Z,3.05
2022-12-11T15:09:26.066Z,3.04
2022-12-11T15:12:28.682Z,3.00
2022-12-11T15:15:31.753Z,2.85
2022-12-11T15:18:36.793Z,2.87
2022-12-11T15:21:39.486Z,2.90
2022-12-11T15:24:42.746Z,2.93
2022-12-11T15:27:45.546Z,2.93
2022-12-11T15:30:56.427Z,2.91
2022-12-11T15:34:00.355Z,2.91
2022-12-11T15:37:03.007Z,2.92
2022-12-11T15:40:06.504Z,2.92
2022-12-11T15:43:09.629Z,2.88
2022-12-11T15:46:12.268Z,2.88
2022-12-11T15:49:16.252Z,2.90
2022-12-11T15:52:18.841Z,2.85
2022-12-11T15:55:21.780Z,2.81
2022-12-11T15:58:24.482Z,2.82
2022-12-11T16:01:27.058Z,2.82
2022-12-11T16:04:31.057Z,2.86
2022-12-11T16:07:34.101Z,2.86
2022-12-11T16:10:37.527Z,2.88
2022-12-11T16:13:40.166Z,2.88
2022-12-11T16:16:42.772Z,2.88
2022-12-11T16:19:46.764Z,2.89
2022-12-11T16:22:49.382Z,2.85
2022-12-11T16:25:51.993Z,2.82
2022-12-11T16:28:54.560Z,2.74
2022-12-11T16:31:57.168Z,2.74
2022-12-11T16:35:01.484Z,2.73
2022-12-11T16:38:04.110Z,2.70
2022-12-11T16:41:07.120Z,2.69
2022-12-11T16:44:10.444Z,2.65
2022-12-11T16:47:13.048Z,2.55
2022-12-11T16:50:17.389Z,2.49
2022-12-11T16:53:19.948Z,2.46
2022-12-11T16:56:22.604Z,2.43
2022-12-11T16:59:25.168Z,2.39
2022-12-11T17:02:27.788Z,2.39
2022-12-11T17:05:31.789Z,2.38
2022-12-11T17:08:34.427Z,2.38
2022-12-11T17:11:37.032Z,2.40
2022-12-11T17:14:39.658Z,2.40
2022-12-11T17:17:43.097Z,2.38
2022-12-11T17:20:47.012Z,2.37
2022-12-11T17:23:49.580Z,2.37
2022-12-11T17:26:52.199Z,2.42
2022-12-11T17:29:54.769Z,2.47
2022-12-11T17:32:57.369Z,2.49
2022-12-11T17:36:01.811Z,2.49
2022-12-11T17:39:04.507Z,2.52
2022-12-11T17:42:07.272Z,2.50
2022-12-11T17:45:10.863Z,2.54
2022-12-11T17:48:13.889Z,2.59
2022-12-11T17:51:21.791Z,2.62
2022-12-11T17:54:24.525Z,2.57
2022-12-11T17:57:27.119Z,2.52
2022-12-11T18:00:33.229Z,2.47
2022-12-11T18:03:36.239Z,2.51
2022-12-11T18:06:40.282Z,2.49
2022-12-11T18:09:42.877Z,2.53
2022-12-11T18:12:45.478Z,2.56
2022-12-11T18:15:48.617Z,2.55
2022-12-11T18:18:52.037Z,2.57
2022-12-11T18:21:56.065Z,2.56
2022-12-11T18:24:59.156Z,2.56
2022-12-11T18:28:01.760Z,2.52
2022-12-11T18:31:04.588Z,2.53
2022-12-11T18:34:07.212Z,2.56
2022-12-11T18:37:11.114Z,2.59
2022-12-11T18:40:13.682Z,2.61
2022-12-11T18:43:16.242Z,2.62
2022-12-11T18:46:19.899Z,2.64
2022-12-11T18:49:22.665Z,2.64
2022-12-11T18:52:26.593Z,2.61
2022-12-11T18:55:29.194Z,2.58
2022-12-11T18:58:31.812Z,2.59
2022-12-11T19:01:34.588Z,2.60
2022-12-11T19:04:37.592Z,2.58
2022-12-11T19:07:41.533Z,2.63
2022-12-11T19:10:47.004Z,2.63
2022-12-11T19:13:49.707Z,2.60
2022-12-11T19:16:52.318Z,2.55
2022-12-11T19:19:54.865Z,2.55
2022-12-11T19:22:58.821Z,2.59
2022-12-11T19:26:01.565Z,2.61
2022-12-11T19:29:04.386Z,2.63
2022-12-11T19:32:07.036Z,2.61
2022-12-11T19:35:10.196Z,2.57
2022-12-11T19:38:14.506Z,2.49
2022-12-11T19:41:18.363Z,2.42
2022-12-11T19:44:20.982Z,2.44
2022-12-11T19:47:23.586Z,2.50
2022-12-11T19:50:26.200Z,2.49
2022-12-11T19:53:30.288Z,2.50
2022-12-11T19:56:33.112Z,2.54
2022-12-11T19:59:35.721Z,2.57
2022-12-11T20:02:38.341Z,2.56
2022-12-11T20:05:40.976Z,2.47
2022-12-11T20:08:46.003Z,2.46
2022-12-11T20:11:48.932Z,2.39
2022-12-11T20:14:51.561Z,2.37
2022-12-11T20:17:54.239Z,2.39
2022-12-11T20:20:56.869Z,2.36
2022-12-11T20:24:00.812Z,2.28
2022-12-11T20:27:03.380Z,2.24
2022-12-11T20:30:07.322Z,2.20
2022-12-11T20:33:09.962Z,2.18
2022-12-11T20:36:13.608Z,2.22
2022-12-11T20:39:17.548Z,2.24
2022-12-11T20:42:20.130Z,2.22
2022-12-11T20:45:22.778Z,2.16
2022-12-11T20:48:25.932Z,2.10
2022-12-11T20:51:29.027Z,2.12
2022-12-11T20:54:32.953Z,2.11
2022-12-11T20:57:37.346Z,2.08
2022-12-11T21:00:43.765Z,2.10
2022-12-11T21:03:46.629Z,2.15
2022-12-11T21:06:55.050Z,2.21
2022-12-11T21:09:58.966Z,2.23
2022-12-11T21:13:01.568Z,2.26
2022-12-11T21:16:06.132Z,2.30
2022-12-11T21:19:13.683Z,2.34
2022-12-11T21:22:19.074Z,2.37
2022-12-11T21:25:23.011Z,2.28
2022-12-11T21:28:29.292Z,2.39
2022-12-11T21:31:34.671Z,2.35
2022-12-11T21:34:37.719Z,2.32
2022-12-11T21:37:41.797Z,2.32
2022-12-11T21:40:45.736Z,2.26
2022-12-11T21:47:11.536Z,2.24
2022-12-11T21:50:14.129Z,2.25
2022-12-11T21:53:16.718Z,2.18
2022-12-11T21:56:21.505Z,2.05
2022-12-11T21:59:24.145Z,2.08
2022-12-11T22:02:26.776Z,2.14
2022-12-11T22:05:29.372Z,2.13
2022-12-11T22:08:32.016Z,2.08
2022-12-11T22:11:36.217Z,2.11
2022-12-11T22:14:38.755Z,2.11
2022-12-11T22:17:41.312Z,2.14
2022-12-11T22:20:44.489Z,2.16
2022-12-11T22:23:47.080Z,2.10
2022-12-11T22:26:51.276Z,2.10
2022-12-11T22:29:53.957Z,2.08
2022-12-11T22:32:56.520Z,2.08
2022-12-11T22:35:59.682Z,1.97
2022-12-11T22:39:02.807Z,2.12
2022-12-11T22:42:06.914Z,2.09
2022-12-11T22:45:11.026Z,2.10
2022-12-11T22:48:13.864Z,2.08
2022-12-11T22:51:16.419Z,2.04
2022-12-11T22:54:18.978Z,2.03
2022-12-11T22:57:22.921Z,2.12
2022-12-11T23:00:25.774Z,2.14
2022-12-11T23:03:28.468Z,2.20
2022-12-11T23:06:31.111Z,2.21
2022-12-11T23:09:33.714Z,2.24
2022-12-11T23:12:37.710Z,2.29
2022-12-11T23:15:40.305Z,2.33
2022-12-11T23:18:43.017Z,2.39
2022-12-11T23:21:45.560Z,2.47
2022-12-11T23:24:48.138Z,2.53
2022-12-11T23:27:52.105Z,2.58
2022-12-11T23:30:55.028Z,2.64
2022-12-11T23:33:58.017Z,2.67
2022-12-11T23:37:00.655Z,2.72
2022-12-11T23:40:03.245Z,2.72
2022-12-11T23:43:07.223Z,2.65
2022-12-11T23:46:12.817Z,2.58
2022-12-11T23:49:15.479Z,2.52
2022-12-11T23:52:18.098Z,2.49
2022-12-11T23:55:20.760Z,2.49
2022-12-11T23:58:24.694Z,2.49
